sensor_id;sensor_type;location;lat;lon;timestamp;temperature;humidity
43338;DHT22;28933;52.492;13.434;2022-09-09T00:00:53;17.40;99.90
43338;DHT22;28933;52.492;13.434;2022-09-09T00:03:24;17.40;99.90
43338;DHT22;28933;52.492;13.434;2022-09-09T00:08:45;17.40;99.90
43338;DHT22;28933;52.492;13.434;2022-09-09T00:11:20;17.40;99.90
43338;DHT22;28933;52.492;13.434;2022-09-09T00:13:53;17.30;99.90
43338;DHT22;28933;52.492;13.434;2022-09-09T00:16:28;17.30;99.90
43338;DHT22;28933;52.492;13.434;2022-09-09T00:21:37;17.30;99.90
43338;DHT22;28933;52.492;13.434;2022-09-09T00:27:11;17.30;99.90
43338;DHT22;28933;52.492;13.434;2022-09-09T00:29:51;17.20;99.90
43338;DHT22;28933;52.492;13.434;2022-09-09T00:32:20;17.20;99.90
43338;DHT22;28933;52.492;13.434;2022-09-09T00:34:55;17.20;99.90
43338;DHT22;28933;52.492;13.434;2022-09-09T00:37:25;17.20;99.90
43338;DHT22;28933;52.492;13.434;2022-09-09T00:39:53;17.20;99.90
43338;DHT22;28933;52.492;13.434;2022-09-09T00:42:26;17.20;99.90
43338;DHT22;28933;52.492;13.434;2022-09-09T00:45:29;17.20;99.90
43338;DHT22;28933;52.492;13.434;2022-09-09T00:48:02;17.10;99.90
43338;DHT22;28933;52.492;13.434;2022-09-09T00:53:32;17.10;99.90
43338;DHT22;28933;52.492;13.434;2022-09-09T00:56:13;17.00;99.90
43338;DHT22;28933;52.492;13.434;2022-09-09T00:58:43;17.00;99.90
43338;DHT22;28933;52.492;13.434;2022-09-09T01:01:16;17.00;99.90
43338;DHT22;28933;52.492;13.434;2022-09-09T01:03:55;17.00;99.90
43338;DHT22;28933;52.492;13.434;2022-09-09T01:06:33;17.00;99.90
43338;DHT22;28933;52.492;13.434;2022-09-09T01:09:16;17.00;99.90
43338;DHT22;28933;52.492;13.434;2022-09-09T01:12:11;17.00;99.90
43338;DHT22;28933;52.492;13.434;2022-09-09T01:14:42;17.00;99.90
43338;DHT22;28933;52.492;13.434;2022-09-09T01:17:30;17.00;99.90
43338;DHT22;28933;52.492;13.434;2022-09-09T01:22:57;16.90;99.90
43338;DHT22;28933;52.492;13.434;2022-09-09T01:28:16;16.90;99.90
43338;DHT22;28933;52.492;13.434;2022-09-09T01:30:42;16.90;99.90
43338;DHT22;28933;52.492;13.434;2022-09-09T01:33:13;16.80;99.90
43338;DHT22;28933;52.492;13.434;2022-09-09T01:38:22;16.80;99.90
43338;DHT22;28933;52.492;13.434;2022-09-09T01:40:49;16.80;99.90
43338;DHT22;28933;52.492;13.434;2022-09-09T01:43:20;16.80;99.90
43338;DHT22;28933;52.492;13.434;2022-09-09T01:45:48;16.70;99.90
43338;DHT22;28933;52.492;13.434;2022-09-09T01:48:15;16.70;99.90
43338;DHT22;28933;52.492;13.434;2022-09-09T01:50:40;16.70;99.90
43338;DHT22;28933;52.492;13.434;2022-09-09T01:53:06;16.70;99.90
43338;DHT22;28933;52.492;13.434;2022-09-09T01:55:40;16.70;99.90
43338;DHT22;28933;52.492;13.434;2022-09-09T02:01:12;16.70;99.90
43338;DHT22;28933;52.492;13.434;2022-09-09T02:03:46;16.70;99.90
43338;DHT22;28933;52.492;13.434;2022-09-09T02:06:31;16.60;99.90
43338;DHT22;28933;52.492;13.434;2022-09-09T02:09:02;16.60;99.90
43338;DHT22;28933;52.492;13.434;2022-09-09T02:11:29;16.60;99.90
43338;DHT22;28933;52.492;13.434;2022-09-09T02:14:03;16.60;99.90
43338;DHT22;28933;52.492;13.434;2022-09-09T02:16:38;16.60;99.90
43338;DHT22;28933;52.492;13.434;2022-09-09T02:19:15;16.60;99.90
43338;DHT22;28933;52.492;13.434;2022-09-09T02:21:53;16.60;99.90
43338;DHT22;28933;52.492;13.434;2022-09-09T02:24:20;16.50;99.90
43338;DHT22;28933;52.492;13.434;2022-09-09T02:26:48;16.50;99.90
43338;DHT22;28933;52.492;13.434;2022-09-09T02:29:19;16.50;99.90
43338;DHT22;28933;52.492;13.434;2022-09-09T02:31:46;16.50;99.90
43338;DHT22;28933;52.492;13.434;2022-09-09T02:34:14;16.50;99.90
43338;DHT22;28933;52.492;13.434;2022-09-09T02:36:42;16.50;99.90
43338;DHT22;28933;52.492;13.434;2022-09-09T02:39:10;16.50;99.90
43338;DHT22;28933;52.492;13.434;2022-09-09T02:41:38;16.50;99.90
43338;DHT22;28933;52.492;13.434;2022-09-09T02:44:14;16.50;99.90
43338;DHT22;28933;52.492;13.434;2022-09-09T02:49:56;16.50;99.90
43338;DHT22;28933;52.492;13.434;2022-09-09T02:52:32;16.50;99.90
43338;DHT22;28933;52.492;13.434;2022-09-09T02:55:08;16.50;99.90
43338;DHT22;28933;52.492;13.434;2022-09-09T02:57:36;16.40;99.90
43338;DHT22;28933;52.492;13.434;2022-09-09T03:00:04;16.40;99.90
43338;DHT22;28933;52.492;13.434;2022-09-09T03:02:30;16.40;99.90
43338;DHT22;28933;52.492;13.434;2022-09-09T03:04:56;16.40;99.90
43338;DHT22;28933;52.492;13.434;2022-09-09T03:07:21;16.40;99.90
43338;DHT22;28933;52.492;13.434;2022-09-09T03:09:47;16.40;99.90
43338;DHT22;28933;52.492;13.434;2022-09-09T03:12:12;16.40;99.90
43338;DHT22;28933;52.492;13.434;2022-09-09T03:14:38;16.40;99.90
43338;DHT22;28933;52.492;13.434;2022-09-09T03:17:05;16.40;99.90
43338;DHT22;28933;52.492;13.434;2022-09-09T03:19:31;16.30;99.90
43338;DHT22;28933;52.492;13.434;2022-09-09T03:21:57;16.40;99.90
43338;DHT22;28933;52.492;13.434;2022-09-09T03:24:24;16.30;99.90
43338;DHT22;28933;52.492;13.434;2022-09-09T03:26:49;16.30;99.90
43338;DHT22;28933;52.492;13.434;2022-09-09T03:29:16;16.30;99.90
43338;DHT22;28933;52.492;13.434;2022-09-09T03:31:42;16.30;99.90
43338;DHT22;28933;52.492;13.434;2022-09-09T03:34:08;16.30;99.90
43338;DHT22;28933;52.492;13.434;2022-09-09T03:36:34;16.30;99.90
43338;DHT22;28933;52.492;13.434;2022-09-09T03:38:59;16.20;99.90
43338;DHT22;28933;52.492;13.434;2022-09-09T03:41:25;16.20;99.90
43338;DHT22;28933;52.492;13.434;2022-09-09T03:43:51;16.20;99.90
43338;DHT22;28933;52.492;13.434;2022-09-09T03:46:18;16.20;99.90
43338;DHT22;28933;52.492;13.434;2022-09-09T03:48:44;16.20;99.90
43338;DHT22;28933;52.492;13.434;2022-09-09T03:51:09;16.20;99.90
43338;DHT22;28933;52.492;13.434;2022-09-09T03:53:35;16.20;99.90
43338;DHT22;28933;52.492;13.434;2022-09-09T03:56:02;16.20;99.90
43338;DHT22;28933;52.492;13.434;2022-09-09T03:58:28;16.20;99.90
43338;DHT22;28933;52.492;13.434;2022-09-09T04:00:58;16.10;99.90
43338;DHT22;28933;52.492;13.434;2022-09-09T04:03:25;16.10;99.90
43338;DHT22;28933;52.492;13.434;2022-09-09T04:05:51;16.10;99.90
43338;DHT22;28933;52.492;13.434;2022-09-09T04:08:18;16.10;99.90
43338;DHT22;28933;52.492;13.434;2022-09-09T04:10:45;16.10;99.90
43338;DHT22;28933;52.492;13.434;2022-09-09T04:13:12;16.10;99.90
43338;DHT22;28933;52.492;13.434;2022-09-09T04:15:39;16.10;99.90
43338;DHT22;28933;52.492;13.434;2022-09-09T04:18:04;16.10;99.90
43338;DHT22;28933;52.492;13.434;2022-09-09T04:20:31;16.10;99.90
43338;DHT22;28933;52.492;13.434;2022-09-09T04:22:57;16.10;99.90
43338;DHT22;28933;52.492;13.434;2022-09-09T04:25:22;16.10;99.90
43338;DHT22;28933;52.492;13.434;2022-09-09T04:27:52;16.10;99.90
43338;DHT22;28933;52.492;13.434;2022-09-09T04:30:18;16.00;99.90
43338;DHT22;28933;52.492;13.434;2022-09-09T04:32:43;16.10;99.90
43338;DHT22;28933;52.492;13.434;2022-09-09T04:35:09;16.10;99.90
43338;DHT22;28933;52.492;13.434;2022-09-09T04:37:34;16.10;99.90
43338;DHT22;28933;52.492;13.434;2022-09-09T04:40:00;16.10;99.90
43338;DHT22;28933;52.492;13.434;2022-09-09T04:42:27;16.10;99.90
43338;DHT22;28933;52.492;13.434;2022-09-09T04:44:53;16.10;99.90
43338;DHT22;28933;52.492;13.434;2022-09-09T04:47:19;16.10;99.90
43338;DHT22;28933;52.492;13.434;2022-09-09T04:49:45;16.10;99.90
43338;DHT22;28933;52.492;13.434;2022-09-09T04:52:10;16.00;99.90
43338;DHT22;28933;52.492;13.434;2022-09-09T04:54:36;16.10;99.90
43338;DHT22;28933;52.492;13.434;2022-09-09T04:57:02;16.10;99.90
43338;DHT22;28933;52.492;13.434;2022-09-09T04:59:28;16.10;99.90
43338;DHT22;28933;52.492;13.434;2022-09-09T05:01:53;16.10;99.90
43338;DHT22;28933;52.492;13.434;2022-09-09T05:04:21;16.10;99.90
43338;DHT22;28933;52.492;13.434;2022-09-09T05:06:46;16.10;99.90
43338;DHT22;28933;52.492;13.434;2022-09-09T05:09:12;16.20;99.90
43338;DHT22;28933;52.492;13.434;2022-09-09T05:11:37;16.20;99.90
43338;DHT22;28933;52.492;13.434;2022-09-09T05:14:04;16.20;99.90
43338;DHT22;28933;52.492;13.434;2022-09-09T05:16:30;16.20;99.90
43338;DHT22;28933;52.492;13.434;2022-09-09T05:18:56;16.20;99.90
43338;DHT22;28933;52.492;13.434;2022-09-09T05:21:23;16.30;99.90
43338;DHT22;28933;52.492;13.434;2022-09-09T05:23:51;16.30;99.90
43338;DHT22;28933;52.492;13.434;2022-09-09T05:26:18;16.40;99.90
43338;DHT22;28933;52.492;13.434;2022-09-09T05:28:44;16.30;99.90
43338;DHT22;28933;52.492;13.434;2022-09-09T05:31:11;16.40;99.90
43338;DHT22;28933;52.492;13.434;2022-09-09T05:33:38;16.40;99.90
43338;DHT22;28933;52.492;13.434;2022-09-09T05:36:07;16.50;99.90
43338;DHT22;28933;52.492;13.434;2022-09-09T05:38:34;16.50;99.90
43338;DHT22;28933;52.492;13.434;2022-09-09T05:41:01;16.50;99.90
43338;DHT22;28933;52.492;13.434;2022-09-09T05:43:28;16.50;99.90
43338;DHT22;28933;52.492;13.434;2022-09-09T05:46:06;16.60;99.90
43338;DHT22;28933;52.492;13.434;2022-09-09T05:48:35;16.60;99.90
43338;DHT22;28933;52.492;13.434;2022-09-09T05:51:03;16.60;99.90
43338;DHT22;28933;52.492;13.434;2022-09-09T05:53:30;16.70;99.90
43338;DHT22;28933;52.492;13.434;2022-09-09T05:56:11;16.70;99.90
43338;DHT22;28933;52.492;13.434;2022-09-09T05:58:38;16.70;99.90
43338;DHT22;28933;52.492;13.434;2022-09-09T06:01:09;16.70;99.90
43338;DHT22;28933;52.492;13.434;2022-09-09T06:03:36;16.80;99.90
43338;DHT22;28933;52.492;13.434;2022-09-09T06:06:04;16.80;99.90
43338;DHT22;28933;52.492;13.434;2022-09-09T06:08:33;16.80;99.90
43338;DHT22;28933;52.492;13.434;2022-09-09T06:11:10;16.80;99.90
43338;DHT22;28933;52.492;13.434;2022-09-09T06:13:37;16.90;99.90
43338;DHT22;28933;52.492;13.434;2022-09-09T06:16:08;16.90;99.90
43338;DHT22;28933;52.492;13.434;2022-09-09T06:18:34;16.90;99.90
43338;DHT22;28933;52.492;13.434;2022-09-09T06:21:03;17.00;99.90
43338;DHT22;28933;52.492;13.434;2022-09-09T06:23:30;17.00;99.90
43338;DHT22;28933;52.492;13.434;2022-09-09T06:26:22;17.10;99.90
43338;DHT22;28933;52.492;13.434;2022-09-09T06:28:50;17.10;99.90
43338;DHT22;28933;52.492;13.434;2022-09-09T06:31:19;17.10;99.90
43338;DHT22;28933;52.492;13.434;2022-09-09T06:33:53;17.20;99.90
43338;DHT22;28933;52.492;13.434;2022-09-09T06:36:25;17.20;99.90
43338;DHT22;28933;52.492;13.434;2022-09-09T06:38:51;17.30;99.90
43338;DHT22;28933;52.492;13.434;2022-09-09T06:41:18;17.30;99.90
43338;DHT22;28933;52.492;13.434;2022-09-09T06:43:45;17.30;99.90
43338;DHT22;28933;52.492;13.434;2022-09-09T06:46:19;17.30;99.90
43338;DHT22;28933;52.492;13.434;2022-09-09T06:48:45;17.40;99.90
43338;DHT22;28933;52.492;13.434;2022-09-09T06:51:15;17.40;99.90
43338;DHT22;28933;52.492;13.434;2022-09-09T06:53:42;17.50;99.90
43338;DHT22;28933;52.492;13.434;2022-09-09T06:58:41;17.60;99.90
43338;DHT22;28933;52.492;13.434;2022-09-09T07:01:11;17.70;99.90
43338;DHT22;28933;52.492;13.434;2022-09-09T07:03:41;17.70;99.90
43338;DHT22;28933;52.492;13.434;2022-09-09T07:06:09;17.80;99.90
43338;DHT22;28933;52.492;13.434;2022-09-09T07:08:39;17.90;99.90
43338;DHT22;28933;52.492;13.434;2022-09-09T07:11:06;17.90;99.90
43338;DHT22;28933;52.492;13.434;2022-09-09T07:13:33;17.90;99.90
43338;DHT22;28933;52.492;13.434;2022-09-09T07:16:13;18.00;99.90
43338;DHT22;28933;52.492;13.434;2022-09-09T07:18:40;18.10;99.90
43338;DHT22;28933;52.492;13.434;2022-09-09T07:21:06;18.20;99.90
43338;DHT22;28933;52.492;13.434;2022-09-09T07:23:32;18.30;99.90
43338;DHT22;28933;52.492;13.434;2022-09-09T07:25:58;18.40;99.90
43338;DHT22;28933;52.492;13.434;2022-09-09T07:28:25;18.40;99.90
43338;DHT22;28933;52.492;13.434;2022-09-09T07:30:59;18.50;99.90
43338;DHT22;28933;52.492;13.434;2022-09-09T07:33:27;18.60;99.90
43338;DHT22;28933;52.492;13.434;2022-09-09T07:36:02;18.60;99.90
43338;DHT22;28933;52.492;13.434;2022-09-09T07:38:29;18.60;99.90
43338;DHT22;28933;52.492;13.434;2022-09-09T07:41:04;18.70;99.90
43338;DHT22;28933;52.492;13.434;2022-09-09T07:43:30;18.70;99.90
43338;DHT22;28933;52.492;13.434;2022-09-09T07:46:00;18.80;99.90
43338;DHT22;28933;52.492;13.434;2022-09-09T07:48:29;18.80;99.90
43338;DHT22;28933;52.492;13.434;2022-09-09T07:51:15;18.90;99.90
43338;DHT22;28933;52.492;13.434;2022-09-09T07:53:45;19.00;99.90
43338;DHT22;28933;52.492;13.434;2022-09-09T07:56:15;19.00;99.90
43338;DHT22;28933;52.492;13.434;2022-09-09T07:58:44;19.10;99.90
43338;DHT22;28933;52.492;13.434;2022-09-09T08:01:13;19.20;99.90
43338;DHT22;28933;52.492;13.434;2022-09-09T08:03:39;19.30;99.90
43338;DHT22;28933;52.492;13.434;2022-09-09T08:06:07;19.30;99.90
43338;DHT22;28933;52.492;13.434;2022-09-09T08:08:34;19.40;99.90
43338;DHT22;28933;52.492;13.434;2022-09-09T08:11:09;19.50;99.90
43338;DHT22;28933;52.492;13.434;2022-09-09T08:13:36;19.50;99.90
43338;DHT22;28933;52.492;13.434;2022-09-09T08:16:19;19.60;99.90
43338;DHT22;28933;52.492;13.434;2022-09-09T08:18:47;19.60;99.90
43338;DHT22;28933;52.492;13.434;2022-09-09T08:21:18;19.60;99.90
43338;DHT22;28933;52.492;13.434;2022-09-09T08:23:46;19.60;99.90
43338;DHT22;28933;52.492;13.434;2022-09-09T08:26:13;19.60;99.90
43338;DHT22;28933;52.492;13.434;2022-09-09T08:28:40;19.60;99.90
43338;DHT22;28933;52.492;13.434;2022-09-09T08:31:08;19.60;99.90
43338;DHT22;28933;52.492;13.434;2022-09-09T08:33:34;19.60;99.90
43338;DHT22;28933;52.492;13.434;2022-09-09T08:36:02;19.60;99.90
43338;DHT22;28933;52.492;13.434;2022-09-09T08:38:28;19.70;99.90
43338;DHT22;28933;52.492;13.434;2022-09-09T08:41:03;19.70;99.90
43338;DHT22;28933;52.492;13.434;2022-09-09T08:43:33;19.70;99.90
43338;DHT22;28933;52.492;13.434;2022-09-09T08:46:13;19.70;99.90
43338;DHT22;28933;52.492;13.434;2022-09-09T08:48:59;19.70;99.90
43338;DHT22;28933;52.492;13.434;2022-09-09T08:51:28;19.80;99.90
43338;DHT22;28933;52.492;13.434;2022-09-09T08:53:57;19.80;99.90
43338;DHT22;28933;52.492;13.434;2022-09-09T08:56:24;19.90;99.90
43338;DHT22;28933;52.492;13.434;2022-09-09T08:58:54;19.90;99.90
43338;DHT22;28933;52.492;13.434;2022-09-09T09:01:44;20.00;99.90
43338;DHT22;28933;52.492;13.434;2022-09-09T09:07:31;20.10;99.90
43338;DHT22;28933;52.492;13.434;2022-09-09T09:12:46;20.40;99.90
43338;DHT22;28933;52.492;13.434;2022-09-09T09:15:36;20.50;99.90
43338;DHT22;28933;52.492;13.434;2022-09-09T09:18:04;20.60;99.90
43338;DHT22;28933;52.492;13.434;2022-09-09T09:20:42;20.80;99.90
43338;DHT22;28933;52.492;13.434;2022-09-09T09:23:19;20.90;99.90
43338;DHT22;28933;52.492;13.434;2022-09-09T09:25:46;21.10;99.90
43338;DHT22;28933;52.492;13.434;2022-09-09T09:28:23;21.20;99.90
43338;DHT22;28933;52.492;13.434;2022-09-09T09:35:55;21.50;99.90
43338;DHT22;28933;52.492;13.434;2022-09-09T09:38:25;21.60;99.90
43338;DHT22;28933;52.492;13.434;2022-09-09T09:40:55;21.60;99.90
43338;DHT22;28933;52.492;13.434;2022-09-09T09:45:55;21.70;99.50
43338;DHT22;28933;52.492;13.434;2022-09-09T09:48:24;21.70;99.30
43338;DHT22;28933;52.492;13.434;2022-09-09T09:51:18;21.80;99.10
43338;DHT22;28933;52.492;13.434;2022-09-09T09:53:43;21.80;98.90
43338;DHT22;28933;52.492;13.434;2022-09-09T09:56:12;21.80;98.90
43338;DHT22;28933;52.492;13.434;2022-09-09T09:58:50;21.80;99.10
43338;DHT22;28933;52.492;13.434;2022-09-09T10:01:24;21.80;99.00
43338;DHT22;28933;52.492;13.434;2022-09-09T10:03:51;21.70;99.00
43338;DHT22;28933;52.492;13.434;2022-09-09T10:06:17;21.80;99.30
43338;DHT22;28933;52.492;13.434;2022-09-09T10:08:54;21.80;98.80
43338;DHT22;28933;52.492;13.434;2022-09-09T10:14:19;21.80;98.60
43338;DHT22;28933;52.492;13.434;2022-09-09T10:17:07;21.80;98.60
43338;DHT22;28933;52.492;13.434;2022-09-09T10:19:37;21.80;98.60
43338;DHT22;28933;52.492;13.434;2022-09-09T10:22:28;21.80;98.40
43338;DHT22;28933;52.492;13.434;2022-09-09T10:25:37;21.90;98.30
43338;DHT22;28933;52.492;13.434;2022-09-09T10:28:26;21.90;98.20
43338;DHT22;28933;52.492;13.434;2022-09-09T10:36:44;22.00;98.00
43338;DHT22;28933;52.492;13.434;2022-09-09T10:39:21;22.00;98.00
43338;DHT22;28933;52.492;13.434;2022-09-09T10:42:06;22.10;98.30
43338;DHT22;28933;52.492;13.434;2022-09-09T10:44:55;22.00;97.90
43338;DHT22;28933;52.492;13.434;2022-09-09T10:47:38;22.00;98.10
43338;DHT22;28933;52.492;13.434;2022-09-09T10:55:52;22.10;97.80
43338;DHT22;28933;52.492;13.434;2022-09-09T10:58:29;22.20;97.90
43338;DHT22;28933;52.492;13.434;2022-09-09T11:01:01;22.30;97.60
43338;DHT22;28933;52.492;13.434;2022-09-09T11:03:29;22.30;97.40
43338;DHT22;28933;52.492;13.434;2022-09-09T11:06:00;22.40;97.00
43338;DHT22;28933;52.492;13.434;2022-09-09T11:08:29;22.50;96.90
43338;DHT22;28933;52.492;13.434;2022-09-09T11:11:10;22.60;97.00
43338;DHT22;28933;52.492;13.434;2022-09-09T11:13:44;22.70;97.10
43338;DHT22;28933;52.492;13.434;2022-09-09T11:16:20;22.70;97.30
43338;DHT22;28933;52.492;13.434;2022-09-09T11:18:48;22.80;96.60
43338;DHT22;28933;52.492;13.434;2022-09-09T11:21:23;22.80;96.60
43338;DHT22;28933;52.492;13.434;2022-09-09T11:23:55;22.90;96.60
43338;DHT22;28933;52.492;13.434;2022-09-09T11:26:37;22.90;96.30
43338;DHT22;28933;52.492;13.434;2022-09-09T11:29:19;23.00;96.40
43338;DHT22;28933;52.492;13.434;2022-09-09T11:31:58;23.10;96.40
43338;DHT22;28933;52.492;13.434;2022-09-09T11:42:39;23.30;96.10
43338;DHT22;28933;52.492;13.434;2022-09-09T11:45:10;23.40;95.50
43338;DHT22;28933;52.492;13.434;2022-09-09T11:47:36;23.50;95.20
43338;DHT22;28933;52.492;13.434;2022-09-09T11:52:43;23.60;95.10
43338;DHT22;28933;52.492;13.434;2022-09-09T11:58:18;23.60;95.00
43338;DHT22;28933;52.492;13.434;2022-09-09T12:00:46;23.70;94.80
43338;DHT22;28933;52.492;13.434;2022-09-09T12:05:57;23.70;94.60
43338;DHT22;28933;52.492;13.434;2022-09-09T12:08:28;23.70;94.70
43338;DHT22;28933;52.492;13.434;2022-09-09T12:10:56;23.70;94.70
43338;DHT22;28933;52.492;13.434;2022-09-09T12:13:24;23.80;94.50
43338;DHT22;28933;52.492;13.434;2022-09-09T12:15:52;23.80;94.00
43338;DHT22;28933;52.492;13.434;2022-09-09T12:18:38;23.80;94.20
43338;DHT22;28933;52.492;13.434;2022-09-09T12:21:31;23.90;94.20
43338;DHT22;28933;52.492;13.434;2022-09-09T12:24:11;23.90;94.10
43338;DHT22;28933;52.492;13.434;2022-09-09T12:26:45;23.90;93.80
43338;DHT22;28933;52.492;13.434;2022-09-09T12:29:39;23.90;93.80
43338;DHT22;28933;52.492;13.434;2022-09-09T12:32:15;23.90;93.70
43338;DHT22;28933;52.492;13.434;2022-09-09T12:34:58;23.90;93.30
43338;DHT22;28933;52.492;13.434;2022-09-09T12:40:27;23.80;93.30
43338;DHT22;28933;52.492;13.434;2022-09-09T12:42:53;23.80;93.20
43338;DHT22;28933;52.492;13.434;2022-09-09T12:45:26;23.80;93.20
43338;DHT22;28933;52.492;13.434;2022-09-09T12:48:06;23.80;93.20
43338;DHT22;28933;52.492;13.434;2022-09-09T12:50:37;23.80;93.40
43338;DHT22;28933;52.492;13.434;2022-09-09T12:53:23;23.80;93.40
43338;DHT22;28933;52.492;13.434;2022-09-09T12:56:00;23.80;93.40
43338;DHT22;28933;52.492;13.434;2022-09-09T12:58:29;23.80;93.20
43338;DHT22;28933;52.492;13.434;2022-09-09T13:00:59;23.80;93.10
43338;DHT22;28933;52.492;13.434;2022-09-09T13:03:26;23.80;92.90
43338;DHT22;28933;52.492;13.434;2022-09-09T13:05:52;23.90;92.70
43338;DHT22;28933;52.492;13.434;2022-09-09T13:08:19;23.90;92.60
43338;DHT22;28933;52.492;13.434;2022-09-09T13:10:51;23.90;92.80
43338;DHT22;28933;52.492;13.434;2022-09-09T13:13:42;24.00;92.80
43338;DHT22;28933;52.492;13.434;2022-09-09T13:16:22;24.00;93.00
43338;DHT22;28933;52.492;13.434;2022-09-09T13:18:48;24.00;92.90
43338;DHT22;28933;52.492;13.434;2022-09-09T13:21:14;24.00;92.80
43338;DHT22;28933;52.492;13.434;2022-09-09T13:23:40;24.10;92.80
43338;DHT22;28933;52.492;13.434;2022-09-09T13:26:24;24.10;92.50
43338;DHT22;28933;52.492;13.434;2022-09-09T13:28:54;24.10;92.70
43338;DHT22;28933;52.492;13.434;2022-09-09T13:31:33;24.10;92.40
43338;DHT22;28933;52.492;13.434;2022-09-09T13:34:32;24.20;92.10
43338;DHT22;28933;52.492;13.434;2022-09-09T13:36:59;24.20;92.30
43338;DHT22;28933;52.492;13.434;2022-09-09T13:39:28;24.20;92.00
43338;DHT22;28933;52.492;13.434;2022-09-09T13:41:54;24.30;92.20
43338;DHT22;28933;52.492;13.434;2022-09-09T13:44:30;24.40;91.80
43338;DHT22;28933;52.492;13.434;2022-09-09T13:47:01;24.40;91.60
43338;DHT22;28933;52.492;13.434;2022-09-09T13:49:28;24.50;91.50
43338;DHT22;28933;52.492;13.434;2022-09-09T13:52:05;24.60;91.20
43338;DHT22;28933;52.492;13.434;2022-09-09T13:54:33;24.70;91.20
43338;DHT22;28933;52.492;13.434;2022-09-09T13:56:58;24.90;91.00
43338;DHT22;28933;52.492;13.434;2022-09-09T13:59:24;25.00;91.10
43338;DHT22;28933;52.492;13.434;2022-09-09T14:01:51;25.10;90.80
43338;DHT22;28933;52.492;13.434;2022-09-09T14:04:18;25.10;90.80
43338;DHT22;28933;52.492;13.434;2022-09-09T14:06:45;25.10;90.30
43338;DHT22;28933;52.492;13.434;2022-09-09T14:09:14;25.10;90.30
43338;DHT22;28933;52.492;13.434;2022-09-09T14:11:40;25.00;89.90
43338;DHT22;28933;52.492;13.434;2022-09-09T14:14:06;25.00;90.00
43338;DHT22;28933;52.492;13.434;2022-09-09T14:16:32;25.00;90.00
43338;DHT22;28933;52.492;13.434;2022-09-09T14:18:58;24.90;90.00
43338;DHT22;28933;52.492;13.434;2022-09-09T14:21:24;24.90;90.00
43338;DHT22;28933;52.492;13.434;2022-09-09T14:23:50;24.90;90.00
43338;DHT22;28933;52.492;13.434;2022-09-09T14:26:16;25.00;90.30
43338;DHT22;28933;52.492;13.434;2022-09-09T14:28:41;25.10;90.60
43338;DHT22;28933;52.492;13.434;2022-09-09T14:31:07;25.20;90.90
43338;DHT22;28933;52.492;13.434;2022-09-09T14:33:32;25.30;90.40
43338;DHT22;28933;52.492;13.434;2022-09-09T14:36:00;25.30;90.50
43338;DHT22;28933;52.492;13.434;2022-09-09T14:38:31;25.40;90.30
43338;DHT22;28933;52.492;13.434;2022-09-09T14:40:59;25.40;90.60
43338;DHT22;28933;52.492;13.434;2022-09-09T14:43:25;25.50;90.70
43338;DHT22;28933;52.492;13.434;2022-09-09T14:45:52;25.50;90.40
43338;DHT22;28933;52.492;13.434;2022-09-09T14:48:17;25.60;90.20
43338;DHT22;28933;52.492;13.434;2022-09-09T14:50:43;25.60;90.30
43338;DHT22;28933;52.492;13.434;2022-09-09T14:53:09;25.60;89.80
43338;DHT22;28933;52.492;13.434;2022-09-09T14:55:36;25.50;89.00
43338;DHT22;28933;52.492;13.434;2022-09-09T14:58:02;25.40;89.40
43338;DHT22;28933;52.492;13.434;2022-09-09T15:00:28;25.30;89.10
43338;DHT22;28933;52.492;13.434;2022-09-09T15:02:54;25.10;89.60
43338;DHT22;28933;52.492;13.434;2022-09-09T15:05:21;25.00;89.50
43338;DHT22;28933;52.492;13.434;2022-09-09T15:07:46;24.90;89.50
43338;DHT22;28933;52.492;13.434;2022-09-09T15:10:14;24.80;90.00
43338;DHT22;28933;52.492;13.434;2022-09-09T15:12:40;24.70;89.80
43338;DHT22;28933;52.492;13.434;2022-09-09T15:15:07;24.60;90.00
43338;DHT22;28933;52.492;13.434;2022-09-09T15:17:33;24.60;89.70
43338;DHT22;28933;52.492;13.434;2022-09-09T15:19:59;24.70;89.70
43338;DHT22;28933;52.492;13.434;2022-09-09T15:22:24;24.80;90.10
43338;DHT22;28933;52.492;13.434;2022-09-09T15:24:50;24.90;90.00
43338;DHT22;28933;52.492;13.434;2022-09-09T15:27:16;25.00;89.20
43338;DHT22;28933;52.492;13.434;2022-09-09T15:29:42;25.20;89.40
43338;DHT22;28933;52.492;13.434;2022-09-09T15:32:09;25.20;87.40
43338;DHT22;28933;52.492;13.434;2022-09-09T15:34:35;25.20;86.80
43338;DHT22;28933;52.492;13.434;2022-09-09T15:37:00;25.20;85.30
43338;DHT22;28933;52.492;13.434;2022-09-09T15:39:26;25.10;83.90
43338;DHT22;28933;52.492;13.434;2022-09-09T15:41:52;25.10;84.10
43338;DHT22;28933;52.492;13.434;2022-09-09T15:44:17;25.10;82.60
43338;DHT22;28933;52.492;13.434;2022-09-09T15:46:51;25.10;81.20
43338;DHT22;28933;52.492;13.434;2022-09-09T15:49:19;25.10;81.50
43338;DHT22;28933;52.492;13.434;2022-09-09T15:51:58;25.10;81.30
43338;DHT22;28933;52.492;13.434;2022-09-09T15:54:25;25.10;80.70
43338;DHT22;28933;52.492;13.434;2022-09-09T15:56:54;25.10;80.10
43338;DHT22;28933;52.492;13.434;2022-09-09T15:59:24;25.10;79.70
43338;DHT22;28933;52.492;13.434;2022-09-09T16:01:49;25.10;79.60
43338;DHT22;28933;52.492;13.434;2022-09-09T16:04:18;25.10;79.60
43338;DHT22;28933;52.492;13.434;2022-09-09T16:06:55;25.10;79.40
43338;DHT22;28933;52.492;13.434;2022-09-09T16:09:21;25.20;80.20
43338;DHT22;28933;52.492;13.434;2022-09-09T16:11:47;25.20;80.70
43338;DHT22;28933;52.492;13.434;2022-09-09T16:14:14;25.20;79.80
43338;DHT22;28933;52.492;13.434;2022-09-09T16:16:41;25.10;79.60
43338;DHT22;28933;52.492;13.434;2022-09-09T16:19:09;25.20;80.10
43338;DHT22;28933;52.492;13.434;2022-09-09T16:21:43;25.10;80.00
43338;DHT22;28933;52.492;13.434;2022-09-09T16:24:11;25.10;80.60
43338;DHT22;28933;52.492;13.434;2022-09-09T16:26:39;25.00;80.10
43338;DHT22;28933;52.492;13.434;2022-09-09T16:29:05;24.90;80.30
43338;DHT22;28933;52.492;13.434;2022-09-09T16:31:31;24.90;81.30
43338;DHT22;28933;52.492;13.434;2022-09-09T16:33:57;24.70;81.20
43338;DHT22;28933;52.492;13.434;2022-09-09T16:36:28;24.60;81.20
43338;DHT22;28933;52.492;13.434;2022-09-09T16:39:01;24.50;81.40
43338;DHT22;28933;52.492;13.434;2022-09-09T16:41:28;24.40;81.70
43338;DHT22;28933;52.492;13.434;2022-09-09T16:43:59;24.30;81.70
43338;DHT22;28933;52.492;13.434;2022-09-09T16:46:26;24.20;81.70
43338;DHT22;28933;52.492;13.434;2022-09-09T16:48:53;24.20;82.10
43338;DHT22;28933;52.492;13.434;2022-09-09T16:51:29;24.10;82.10